createdAt,value
2018-12-05T00:00:38.703Z,8.53
2018-12-05T00:01:42.988Z,8.52
2018-12-05T00:02:47.041Z,8.52
2018-12-05T00:03:51.181Z,8.50
2018-12-05T00:04:55.435Z,8.51
2018-12-05T00:05:59.618Z,8.50
2018-12-05T00:07:03.793Z,8.50
2018-12-05T00:08:08.638Z,8.49
2018-12-05T00:09:12.750Z,8.48
2018-12-05T00:10:16.880Z,8.47
2018-12-05T00:11:21.067Z,8.47
2018-12-05T00:12:25.287Z,8.47
2018-12-05T00:13:29.511Z,8.46
2018-12-05T00:14:33.739Z,8.46
2018-12-05T00:15:37.902Z,8.45
2018-12-05T00:16:41.945Z,8.44
2018-12-05T00:17:46.064Z,8.43
2018-12-05T00:18:50.099Z,8.43
2018-12-05T00:19:54.204Z,8.44
2018-12-05T00:20:58.246Z,8.43
2018-12-05T00:22:02.314Z,8.42
2018-12-05T00:23:06.351Z,8.41
2018-12-05T00:24:10.367Z,8.42
2018-12-05T00:25:14.467Z,8.41
2018-12-05T00:26:24.956Z,8.41
2018-12-05T00:27:29.088Z,8.41
2018-12-05T00:28:33.183Z,8.40
2018-12-05T00:29:37.352Z,8.40
2018-12-05T00:30:41.617Z,8.40
2018-12-05T00:31:46.346Z,8.40
2018-12-05T00:32:50.462Z,8.40
2018-12-05T00:33:54.606Z,8.40
2018-12-05T00:34:58.727Z,8.40
2018-12-05T00:36:02.760Z,8.41
2018-12-05T00:37:06.788Z,8.38
2018-12-05T00:38:10.947Z,8.37
2018-12-05T00:39:15.182Z,8.36
2018-12-05T00:40:19.315Z,8.36
2018-12-05T00:41:23.319Z,8.35
2018-12-05T00:42:27.374Z,8.35
2018-12-05T00:43:31.419Z,8.34
2018-12-05T00:44:35.450Z,8.33
2018-12-05T00:45:39.490Z,8.33
2018-12-05T00:46:43.539Z,8.33
2018-12-05T00:47:47.586Z,8.33
2018-12-05T00:48:51.708Z,8.33
2018-12-05T00:49:55.746Z,8.33
2018-12-05T00:50:59.939Z,8.35
2018-12-05T00:52:04.186Z,8.34
2018-12-05T00:53:08.316Z,8.35
2018-12-05T00:54:12.441Z,8.36
2018-12-05T00:55:16.555Z,8.36
2018-12-05T00:57:26.439Z,8.36
2018-12-05T00:58:30.603Z,8.36
2018-12-05T00:59:34.748Z,8.37
2018-12-05T01:00:38.833Z,8.37
2018-12-05T01:01:42.881Z,8.38
2018-12-05T01:02:47.069Z,8.38
2018-12-05T01:03:51.206Z,8.38
2018-12-05T01:04:55.219Z,8.38
2018-12-05T01:05:59.258Z,8.37
2018-12-05T01:07:03.496Z,8.35
2018-12-05T01:08:07.768Z,8.35
2018-12-05T01:09:12.891Z,8.34
2018-12-05T01:10:17.172Z,8.35
2018-12-05T01:11:21.402Z,8.33
2018-12-05T01:12:25.614Z,8.31
2018-12-05T01:13:29.685Z,8.29
2018-12-05T01:14:33.766Z,8.29
2018-12-05T01:15:37.877Z,8.27
2018-12-05T01:16:41.967Z,8.24
2018-12-05T01:17:46.071Z,8.23
2018-12-05T01:18:50.113Z,8.21
2018-12-05T01:19:54.303Z,8.20
2018-12-05T01:20:58.311Z,8.18
2018-12-05T01:22:02.393Z,8.16
2018-12-05T01:23:06.544Z,8.14
2018-12-05T01:24:10.589Z,8.13
2018-12-05T01:25:14.681Z,8.13
2018-12-05T01:26:18.723Z,8.10
2018-12-05T01:27:22.888Z,8.10
2018-12-05T01:28:27.134Z,8.10
2018-12-05T01:29:31.229Z,8.09
2018-12-05T01:32:20.343Z,8.07
2018-12-05T01:33:24.438Z,8.06
2018-12-05T01:34:28.558Z,8.05
2018-12-05T01:35:33.040Z,8.04
2018-12-05T01:36:37.094Z,8.02
2018-12-05T01:37:41.358Z,8.00
2018-12-05T01:38:45.396Z,8.00
2018-12-05T01:39:49.398Z,7.98
2018-12-05T01:40:53.494Z,7.99
2018-12-05T01:41:57.506Z,7.95
2018-12-05T01:43:01.525Z,7.95
2018-12-05T01:44:05.647Z,7.94
2018-12-05T01:45:09.907Z,7.93
2018-12-05T01:46:14.079Z,7.92
2018-12-05T01:47:18.084Z,7.89
2018-12-05T01:48:22.091Z,7.87
2018-12-05T01:49:26.349Z,7.85
2018-12-05T01:50:30.398Z,7.83
2018-12-05T01:51:34.511Z,7.82
2018-12-05T01:52:38.505Z,7.80
2018-12-05T01:53:42.705Z,7.79
2018-12-05T01:54:46.840Z,7.79
2018-12-05T01:55:50.910Z,7.77
2018-12-05T01:56:54.976Z,7.74
2018-12-05T01:57:58.989Z,7.73
2018-12-05T01:59:03.196Z,7.71
2018-12-05T02:00:07.636Z,7.69
2018-12-05T02:01:11.828Z,7.70
2018-12-05T02:02:16.047Z,7.69
2018-12-05T02:03:20.126Z,7.67
2018-12-05T02:04:24.122Z,7.67
2018-12-05T02:05:28.284Z,7.66
2018-12-05T02:06:32.464Z,7.66
2018-12-05T02:07:36.607Z,7.65
2018-12-05T02:08:40.666Z,7.65
2018-12-05T02:09:47.051Z,7.65
2018-12-05T02:10:51.153Z,7.63
2018-12-05T02:11:55.511Z,7.63
2018-12-05T02:12:59.594Z,7.62
2018-12-05T02:14:04.772Z,7.62
2018-12-05T02:15:08.963Z,7.62
2018-12-05T02:16:13.061Z,7.63
2018-12-05T02:17:17.192Z,7.65
2018-12-05T02:18:21.209Z,7.64
2018-12-05T02:19:25.694Z,7.65
2018-12-05T02:20:29.854Z,7.63
2018-12-05T02:21:34.069Z,7.63
2018-12-05T02:22:38.156Z,7.62
2018-12-05T02:23:42.233Z,7.62
2018-12-05T02:24:46.401Z,7.60
2018-12-05T02:25:50.555Z,7.61
2018-12-05T02:26:54.805Z,7.60
2018-12-05T02:27:58.883Z,7.59
2018-12-05T02:29:03.022Z,7.59
2018-12-05T02:30:07.484Z,7.59
2018-12-05T02:31:11.680Z,7.57
2018-12-05T02:32:15.742Z,7.57
2018-12-05T02:33:19.864Z,7.57
2018-12-05T02:34:24.052Z,7.56
2018-12-05T02:35:28.081Z,7.56
2018-12-05T02:36:32.212Z,7.56
2018-12-05T02:37:36.263Z,7.56
2018-12-05T02:38:41.561Z,7.54
2018-12-05T02:39:45.596Z,7.53
2018-12-05T02:40:49.698Z,7.53
2018-12-05T02:41:55.883Z,7.52
2018-12-05T02:42:59.955Z,7.51
2018-12-05T02:44:04.271Z,7.49
2018-12-05T02:45:08.489Z,7.48
2018-12-05T02:46:12.492Z,7.47
2018-12-05T02:47:16.535Z,7.47
2018-12-05T02:48:20.534Z,7.45
2018-12-05T02:49:24.742Z,7.44
2018-12-05T02:50:28.836Z,7.42
2018-12-05T02:51:33.008Z,7.41
2018-12-05T02:52:37.011Z,7.42
2018-12-05T02:53:41.016Z,7.41
2018-12-05T02:54:45.103Z,7.42
2018-12-05T02:55:49.305Z,7.40
2018-12-05T02:56:53.416Z,7.39
2018-12-05T02:57:57.569Z,7.38
2018-12-05T02:59:01.790Z,7.38
2018-12-05T03:00:06.815Z,7.37
2018-12-05T03:01:11.050Z,7.35
2018-12-05T03:02:15.146Z,7.34
2018-12-05T03:03:19.145Z,7.34
2018-12-05T03:04:23.423Z,7.32
2018-12-05T03:05:27.573Z,7.31
2018-12-05T03:06:31.583Z,7.30
2018-12-05T03:07:35.755Z,7.29
2018-12-05T03:08:39.735Z,7.28
2018-12-05T03:09:43.980Z,7.27
2018-12-05T03:10:47.985Z,7.27
2018-12-05T03:11:52.263Z,7.25
2018-12-05T03:12:56.474Z,7.24
2018-12-05T03:14:00.558Z,7.23
2018-12-05T03:15:05.644Z,7.22
2018-12-05T03:16:09.844Z,7.21
2018-12-05T03:18:29.079Z,7.19
2018-12-05T03:19:33.115Z,7.18
2018-12-05T03:20:37.203Z,7.17
2018-12-05T03:21:41.897Z,7.16
2018-12-05T03:22:45.937Z,7.15
2018-12-05T03:23:50.023Z,7.15
2018-12-05T03:24:54.337Z,7.15
2018-12-05T03:25:58.404Z,7.14
2018-12-05T03:27:02.459Z,7.15
2018-12-05T03:28:06.587Z,7.14
2018-12-05T03:29:10.667Z,7.13
2018-12-05T03:30:14.867Z,7.14
2018-12-05T03:31:19.012Z,7.12
2018-12-05T03:32:23.176Z,7.11
2018-12-05T03:33:27.392Z,7.10
2018-12-05T03:34:31.531Z,7.09
2018-12-05T03:35:38.769Z,7.09
2018-12-05T03:36:42.969Z,7.07
2018-12-05T03:37:47.084Z,7.07
2018-12-05T03:38:51.255Z,7.08
2018-12-05T03:39:55.333Z,7.06
2018-12-05T03:40:59.544Z,7.04
2018-12-05T03:42:03.787Z,7.04
2018-12-05T03:43:07.844Z,7.02
2018-12-05T03:44:11.882Z,7.02
2018-12-05T03:45:16.715Z,7.02
2018-12-05T03:46:20.797Z,7.02
2018-12-05T03:47:24.915Z,7.00
2018-12-05T03:48:28.974Z,6.99
2018-12-05T03:49:33.119Z,6.98
2018-12-05T03:50:37.203Z,6.99
2018-12-05T03:51:41.329Z,6.98
2018-12-05T03:52:45.510Z,6.98
2018-12-05T03:53:49.687Z,6.97
2018-12-05T03:54:53.736Z,6.96
2018-12-05T03:55:57.881Z,6.96
2018-12-05T03:57:02.067Z,6.95
2018-12-05T03:58:06.339Z,6.95
2018-12-05T03:59:10.553Z,6.93
2018-12-05T04:00:14.624Z,6.92
2018-12-05T04:01:18.692Z,6.92
2018-12-05T04:02:22.752Z,6.91
2018-12-05T04:03:26.846Z,6.90
2018-12-05T04:04:30.906Z,6.89
2018-12-05T04:05:35.059Z,6.88
2018-12-05T04:06:39.265Z,6.87
2018-12-05T04:07:43.367Z,6.86
2018-12-05T04:08:47.451Z,6.86
2018-12-05T04:09:51.707Z,6.84
2018-12-05T04:10:55.787Z,6.83
2018-12-05T04:11:59.998Z,6.82
2018-12-05T04:13:04.215Z,6.80
2018-12-05T04:14:08.924Z,6.81
2018-12-05T04:15:13.106Z,6.81
2018-12-05T04:16:17.089Z,6.78
2018-12-05T04:17:21.575Z,6.78
2018-12-05T04:18:25.625Z,6.77
2018-12-05T04:19:29.906Z,6.77
2018-12-05T04:20:34.143Z,6.75
2018-12-05T04:21:38.188Z,6.74
2018-12-05T04:22:42.211Z,6.74
2018-12-05T04:23:46.370Z,6.74
2018-12-05T04:24:50.510Z,6.72
2018-12-05T04:25:54.691Z,6.71
2018-12-05T04:26:58.718Z,6.71
2018-12-05T04:28:02.856Z,6.71
2018-12-05T04:29:06.936Z,6.71
2018-12-05T04:30:11.086Z,6.72
2018-12-05T04:31:15.177Z,6.71
2018-12-05T04:32:19.248Z,6.72
2018-12-05T04:33:23.302Z,6.71
2018-12-05T04:34:27.404Z,6.72
2018-12-05T04:35:31.411Z,6.73
2018-12-05T04:36:35.467Z,6.73
2018-12-05T04:37:39.654Z,6.73
2018-12-05T04:38:43.683Z,6.74
2018-12-05T04:39:47.767Z,6.71
2018-12-05T04:40:51.880Z,6.71
2018-12-05T04:41:56.036Z,6.71
2018-12-05T04:43:00.032Z,6.72
2018-12-05T04:44:04.204Z,6.71
2018-12-05T04:45:08.406Z,6.72
2018-12-05T04:46:12.545Z,6.72
2018-12-05T04:47:16.589Z,6.73
2018-12-05T04:48:20.702Z,6.74
2018-12-05T04:49:24.897Z,6.75
2018-12-05T04:50:28.957Z,6.75
2018-12-05T04:51:33.301Z,6.75
2018-12-05T04:52:37.315Z,6.75
2018-12-05T04:53:41.382Z,6.75
2018-12-05T04:54:45.554Z,6.77
2018-12-05T04:55:49.699Z,6.77
2018-12-05T04:56:53.883Z,6.79
2018-12-05T04:57:57.972Z,6.80
2018-12-05T04:59:02.014Z,6.81
2018-12-05T05:00:07.284Z,6.83
2018-12-05T05:01:11.563Z,6.84
2018-12-05T05:02:15.857Z,6.85
2018-12-05T05:03:20.012Z,6.88
2018-12-05T05:04:24.147Z,6.87
2018-12-05T05:05:28.191Z,6.90
2018-12-05T05:06:32.247Z,6.92
2018-12-05T05:07:36.299Z,6.94
2018-12-05T05:08:40.469Z,6.95
2018-12-05T05:09:44.969Z,6.99
2018-12-05T05:10:49.150Z,7.01
2018-12-05T05:11:53.200Z,7.02
2018-12-05T05:12:57.662Z,7.02
2018-12-05T05:14:01.766Z,7.06
2018-12-05T05:15:06.056Z,7.05
2018-12-05T05:16:10.254Z,7.06
2018-12-05T05:17:14.379Z,7.08
2018-12-05T05:18:18.552Z,7.07
2018-12-05T05:19:22.738Z,7.07
2018-12-05T05:20:26.862Z,7.09
2018-12-05T05:21:30.903Z,7.09
2018-12-05T05:22:34.993Z,7.11
2018-12-05T05:23:40.412Z,7.12
2018-12-05T05:24:44.579Z,7.12
2018-12-05T05:25:48.619Z,7.13
2018-12-05T05:26:52.679Z,7.13
2018-12-05T05:27:56.857Z,7.14
2018-12-05T05:29:00.997Z,7.14
2018-12-05T05:30:05.793Z,7.15
2018-12-05T05:31:10.066Z,7.16
2018-12-05T05:32:14.109Z,7.15
2018-12-05T05:33:18.185Z,7.16
2018-12-05T05:34:22.233Z,7.16
2018-12-05T05:35:26.310Z,7.17
2018-12-05T05:36:30.367Z,7.17
2018-12-05T05:37:34.470Z,7.17
2018-12-05T05:38:38.481Z,7.17
2018-12-05T05:39:42.560Z,7.17
2018-12-05T05:40:46.831Z,7.17
2018-12-05T05:41:51.259Z,7.19
2018-12-05T05:42:55.314Z,7.20
2018-12-05T05:43:59.418Z,7.19
2018-12-05T05:45:03.609Z,7.22
2018-12-05T05:46:07.719Z,7.22
2018-12-05T05:47:11.784Z,7.23
2018-12-05T05:48:16.000Z,7.23
2018-12-05T05:49:20.107Z,7.23
2018-12-05T05:50:24.196Z,7.23
2018-12-05T05:51:28.294Z,7.23
2018-12-05T05:52:32.398Z,7.23
2018-12-05T05:53:36.467Z,7.24
2018-12-05T05:54:40.578Z,7.23
2018-12-05T05:55:44.755Z,7.24
2018-12-05T05:56:48.774Z,7.23
2018-12-05T05:57:52.866Z,7.24
2018-12-05T05:58:56.957Z,7.25
2018-12-05T06:00:00.980Z,7.25
2018-12-05T06:01:05.343Z,7.25
2018-12-05T06:02:09.467Z,7.25
2018-12-05T06:03:13.555Z,7.27
2018-12-05T06:04:17.686Z,7.28
2018-12-05T06:05:21.727Z,7.28
2018-12-05T06:06:26.085Z,7.28
2018-12-05T06:07:30.151Z,7.27
2018-12-05T06:08:34.247Z,7.28
2018-12-05T06:09:38.370Z,7.27
2018-12-05T06:10:42.436Z,7.27
2018-12-05T06:11:46.626Z,7.28
2018-12-05T06:12:50.717Z,7.28
2018-12-05T06:13:54.897Z,7.29
2018-12-05T06:14:59.063Z,7.30
2018-12-05T06:16:03.280Z,7.31
2018-12-05T06:17:07.451Z,7.31
2018-12-05T06:18:11.609Z,7.33
2018-12-05T06:19:15.752Z,7.34
2018-12-05T06:20:19.912Z,7.36
2018-12-05T06:21:24.058Z,7.36
2018-12-05T06:22:28.103Z,7.35
2018-12-05T06:23:32.215Z,7.33
2018-12-05T06:24:36.515Z,7.34
2018-12-05T06:25:40.658Z,7.33
2018-12-05T06:26:44.695Z,7.33
2018-12-05T06:27:48.818Z,7.33
2018-12-05T06:28:52.920Z,7.35
2018-12-05T06:29:57.025Z,7.37
2018-12-05T06:31:01.267Z,7.37
2018-12-05T06:32:05.505Z,7.39
2018-12-05T06:33:09.636Z,7.41
2018-12-05T06:34:13.881Z,7.42
2018-12-05T06:35:17.995Z,7.43
2018-12-05T06:36:22.263Z,7.45
2018-12-05T06:37:26.315Z,7.44
2018-12-05T06:38:30.386Z,7.44
2018-12-05T06:39:34.454Z,7.45
2018-12-05T06:40:38.569Z,7.46
2018-12-05T06:41:42.765Z,7.45
2018-12-05T06:42:46.944Z,7.46
2018-12-05T06:43:51.016Z,7.46
2018-12-05T06:44:55.087Z,7.46
2018-12-05T06:45:59.151Z,7.46
2018-12-05T06:47:03.319Z,7.47
2018-12-05T06:48:07.456Z,7.48
2018-12-05T06:49:11.873Z,7.50
2018-12-05T06:50:16.000Z,7.50
2018-12-05T06:51:20.079Z,7.51
2018-12-05T06:52:24.301Z,7.51
2018-12-05T06:53:28.528Z,7.52
2018-12-05T06:54:32.656Z,7.52
2018-12-05T06:55:39.293Z,7.52
2018-12-05T06:56:42.910Z,7.52
2018-12-05T06:57:47.086Z,7.53
2018-12-05T06:58:51.215Z,7.53
2018-12-05T06:59:55.393Z,7.52
2018-12-05T07:00:59.666Z,7.52
2018-12-05T07:02:03.830Z,7.53
2018-12-05T07:03:07.883Z,7.53
2018-12-05T07:04:11.987Z,7.53
2018-12-05T07:05:16.143Z,7.54
2018-12-05T07:06:20.271Z,7.54
2018-12-05T07:07:24.348Z,7.53
2018-12-05T07:08:28.590Z,7.53
2018-12-05T07:09:33.539Z,7.54
2018-12-05T07:10:37.721Z,7.53
2018-12-05T07:11:42.066Z,7.53
2018-12-05T07:12:46.176Z,7.53
2018-12-05T07:13:50.340Z,7.53
2018-12-05T07:14:54.640Z,7.53
2018-12-05T07:15:59.035Z,7.51
2018-12-05T07:17:03.261Z,7.50
2018-12-05T07:18:07.388Z,7.49
2018-12-05T07:19:11.467Z,7.48
2018-12-05T07:20:15.704Z,7.48
2018-12-05T07:21:20.017Z,7.46
2018-12-05T07:22:24.159Z,7.44
2018-12-05T07:23:28.253Z,7.43
2018-12-05T07:24:32.423Z,7.42
2018-12-05T07:25:36.667Z,7.39
2018-12-05T07:26:40.821Z,7.38
2018-12-05T07:27:45.049Z,7.36
2018-12-05T07:28:49.531Z,7.36
2018-12-05T07:29:53.761Z,7.35
2018-12-05T07:30:57.824Z,7.33
2018-12-05T07:32:01.942Z,7.36
2018-12-05T07:33:06.373Z,7.37
2018-12-05T07:34:10.521Z,7.38
2018-12-05T07:35:14.602Z,7.40
2018-12-05T07:36:18.720Z,7.42
2018-12-05T07:37:22.854Z,7.43
2018-12-05T07:38:27.046Z,7.45
2018-12-05T07:39:31.065Z,7.47
2018-12-05T07:40:35.276Z,7.47
2018-12-05T07:41:39.493Z,7.48
2018-12-05T07:42:43.616Z,7.49
2018-12-05T07:43:47.884Z,7.51
2018-12-05T07:44:51.979Z,7.53
2018-12-05T07:45:56.414Z,7.54
2018-12-05T07:47:00.631Z,7.54
2018-12-05T07:48:04.741Z,7.54
2018-12-05T07:49:08.879Z,7.55
2018-12-05T07:50:13.040Z,7.54
2018-12-05T07:51:17.183Z,7.53
2018-12-05T07:52:21.347Z,7.52
2018-12-05T07:53:25.472Z,7.51
2018-12-05T07:54:29.574Z,7.51
2018-12-05T07:55:33.608Z,7.50
2018-12-05T07:56:37.753Z,7.51
2018-12-05T07:57:41.862Z,7.51
2018-12-05T07:58:46.043Z,7.51
2018-12-05T07:59:50.232Z,7.52
2018-12-05T08:00:54.496Z,7.53
2018-12-05T08:01:58.766Z,7.54
2018-12-05T08:03:02.863Z,7.55
2018-12-05T08:04:07.039Z,7.58
2018-12-05T08:05:11.323Z,7.59
2018-12-05T08:06:15.411Z,7.61
2018-12-05T08:07:20.264Z,7.63
2018-12-05T08:08:24.330Z,7.64
2018-12-05T08:09:28.885Z,7.65
2018-12-05T08:10:33.023Z,7.67
2018-12-05T08:11:37.191Z,7.67
2018-12-05T08:12:41.346Z,7.68
2018-12-05T08:13:45.324Z,7.69
2018-12-05T08:14:49.415Z,7.70
2018-12-05T08:15:53.572Z,7.70
2018-12-05T08:16:57.826Z,7.72
2018-12-05T08:18:01.908Z,7.74
2018-12-05T08:19:06.104Z,7.74
2018-12-05T08:20:10.335Z,7.75
2018-12-05T08:21:14.577Z,7.76
2018-12-05T08:22:18.639Z,7.77
2018-12-05T08:23:22.698Z,7.79
2018-12-05T08:24:26.755Z,7.79
2018-12-05T08:25:30.988Z,7.80
2018-12-05T08:26:35.188Z,7.83
2018-12-05T08:27:39.441Z,7.85
2018-12-05T08:28:43.605Z,7.88
2018-12-05T08:29:47.723Z,7.89
2018-12-05T08:30:51.824Z,7.92
2018-12-05T08:31:55.886Z,7.94
2018-12-05T08:32:59.944Z,7.95
2018-12-05T08:34:04.069Z,7.96
2018-12-05T08:35:08.757Z,7.98
2018-12-05T08:36:12.884Z,7.99
2018-12-05T08:37:16.987Z,8.01
2018-12-05T08:38:21.099Z,8.02
2018-12-05T08:39:25.192Z,8.03
2018-12-05T08:40:29.202Z,8.03
2018-12-05T08:41:33.469Z,8.04
2018-12-05T08:42:37.538Z,8.05
2018-12-05T08:43:41.621Z,8.06
2018-12-05T08:44:46.098Z,8.06
2018-12-05T08:45:50.070Z,8.06
2018-12-05T08:46:54.231Z,8.08
2018-12-05T08:47:58.359Z,8.08
2018-12-05T08:49:02.527Z,8.09
2018-12-05T08:50:06.971Z,8.10
2018-12-05T08:51:11.036Z,8.11
2018-12-05T08:52:15.102Z,8.12
2018-12-05T08:53:19.305Z,8.15
2018-12-05T08:54:23.420Z,8.16
2018-12-05T08:55:27.599Z,8.17
2018-12-05T08:56:31.690Z,8.17
2018-12-05T08:57:35.913Z,8.18
2018-12-05T08:58:40.130Z,8.18
2018-12-05T08:59:44.158Z,8.19
2018-12-05T09:00:48.300Z,8.20
2018-12-05T09:01:52.293Z,8.20
2018-12-05T09:02:56.377Z,8.21
2018-12-05T09:04:00.382Z,8.22
2018-12-05T09:05:04.779Z,8.24
2018-12-05T09:06:08.854Z,8.25
2018-12-05T09:07:12.895Z,8.27
2018-12-05T09:08:17.124Z,8.27
2018-12-05T09:09:21.299Z,8.27
2018-12-05T09:10:25.321Z,8.28
2018-12-05T09:11:29.534Z,8.31
2018-12-05T09:12:33.659Z,8.32
2018-12-05T09:13:37.779Z,8.32
2018-12-05T09:14:42.042Z,8.34
2018-12-05T09:15:47.620Z,8.34
2018-12-05T09:16:51.757Z,8.36
2018-12-05T09:17:55.939Z,8.37
2018-12-05T09:18:59.969Z,8.37
2018-12-05T09:20:04.732Z,8.38
2018-12-05T09:21:08.703Z,8.40
2018-12-05T09:22:12.962Z,8.41
2018-12-05T09:23:17.527Z,8.42
2018-12-05T09:24:21.681Z,8.42
2018-12-05T09:25:25.881Z,8.43
2018-12-05T09:26:30.336Z,8.42
2018-12-05T09:27:34.366Z,8.44
2018-12-05T09:28:38.514Z,8.44
2018-12-05T09:29:43.225Z,8.45
2018-12-05T09:30:48.123Z,8.44
2018-12-05T09:31:53.463Z,8.45
2018-12-05T09:32:57.499Z,8.48
2018-12-05T09:34:01.616Z,8.48
2018-12-05T09:35:06.538Z,8.49
2018-12-05T09:36:10.865Z,8.50
2018-12-05T09:37:15.076Z,8.50
2018-12-05T09:38:19.119Z,8.51
2018-12-05T09:39:23.249Z,8.52
2018-12-05T09:40:27.211Z,8.54
2018-12-05T09:41:31.297Z,8.55
2018-12-05T09:42:35.416Z,8.57
2018-12-05T09:43:39.408Z,8.59
2018-12-05T09:44:43.504Z,8.59
2018-12-05T09:45:49.019Z,8.59
2018-12-05T09:46:53.111Z,8.61
2018-12-05T09:47:58.971Z,8.61
2018-12-05T09:49:03.086Z,8.63
2018-12-05T09:50:07.335Z,8.65
2018-12-05T09:51:11.495Z,8.66
2018-12-05T09:52:15.542Z,8.68
2018-12-05T09:53:19.659Z,8.70
2018-12-05T09:54:23.733Z,8.72
2018-12-05T09:55:27.787Z,8.75
2018-12-05T09:56:31.804Z,8.76
2018-12-05T09:57:36.021Z,8.77
2018-12-05T09:58:40.027Z,8.80
2018-12-05T09:59:44.039Z,8.81
2018-12-05T10:00:48.100Z,8.83
2018-12-05T10:01:52.348Z,8.84
2018-12-05T10:02:56.362Z,8.84
2018-12-05T10:04:00.370Z,8.84
2018-12-05T10:05:05.347Z,8.84
2018-12-05T10:06:09.347Z,8.84
2018-12-05T10:07:13.479Z,8.85
2018-12-05T10:08:17.880Z,8.85
2018-12-05T10:09:21.923Z,8.86
2018-12-05T10:10:25.990Z,8.88
2018-12-05T10:11:30.113Z,8.88
2018-12-05T10:12:41.051Z,8.89
2018-12-05T10:13:45.164Z,8.92
2018-12-05T10:14:49.237Z,8.93
2018-12-05T10:15:53.235Z,8.93
2018-12-05T10:16:57.279Z,8.95
2018-12-05T10:18:01.724Z,8.97
2018-12-05T10:19:05.905Z,8.97
2018-12-05T10:20:10.106Z,8.98
2018-12-05T10:21:14.226Z,9.01
2018-12-05T10:22:18.340Z,9.01
2018-12-05T10:23:22.494Z,9.03
2018-12-05T10:24:26.500Z,9.05
2018-12-05T10:25:30.527Z,9.06
2018-12-05T10:26:34.560Z,9.04
2018-12-05T10:27:38.763Z,9.03
2018-12-05T10:28:42.804Z,9.04
2018-12-05T10:29:46.840Z,9.05
2018-12-05T10:30:51.107Z,9.07
2018-12-05T10:31:55.165Z,9.07
2018-12-05T10:33:00.240Z,9.09
2018-12-05T10:34:04.428Z,9.11
2018-12-05T10:35:08.565Z,9.13
2018-12-05T10:36:12.756Z,9.14
2018-12-05T10:37:16.972Z,9.15
2018-12-05T10:38:21.025Z,9.15
2018-12-05T10:39:25.247Z,9.16
2018-12-05T10:40:29.382Z,9.17
2018-12-05T10:41:33.412Z,9.19
2018-12-05T10:42:37.504Z,9.19
2018-12-05T10:43:41.563Z,9.21
2018-12-05T10:44:45.679Z,9.22
2018-12-05T10:45:49.819Z,9.23
2018-12-05T10:46:54.007Z,9.24
2018-12-05T10:47:58.082Z,9.26
2018-12-05T10:49:02.338Z,9.27
2018-12-05T10:50:07.503Z,9.28
2018-12-05T10:51:11.543Z,9.31
2018-12-05T10:52:15.591Z,9.33
2018-12-05T10:53:19.752Z,9.35
2018-12-05T10:54:24.123Z,9.36
2018-12-05T10:55:28.303Z,9.37
2018-12-05T10:56:32.525Z,9.36
2018-12-05T10:57:36.741Z,9.37
2018-12-05T10:58:40.783Z,9.39
2018-12-05T10:59:44.956Z,9.39
2018-12-05T11:00:54.806Z,9.40
2018-12-05T11:02:04.364Z,9.39
2018-12-05T11:03:17.483Z,9.38
2018-12-05T11:04:27.170Z,9.38
2018-12-05T11:05:36.590Z,9.38
2018-12-05T11:06:46.054Z,9.38
2018-12-05T11:07:56.223Z,9.39
2018-12-05T11:09:05.884Z,9.40
2018-12-05T11:10:15.358Z,9.41
2018-12-05T11:11:24.873Z,9.42
2018-12-05T11:12:34.487Z,9.43
2018-12-05T11:13:43.992Z,9.43
2018-12-05T11:14:53.482Z,9.42
2018-12-05T11:17:02.895Z,9.42
2018-12-05T11:18:12.731Z,9.41
2018-12-05T11:19:22.254Z,9.41
2018-12-05T11:20:31.619Z,9.40
2018-12-05T11:21:41.019Z,9.41
2018-12-05T11:23:53.393Z,9.42
2018-12-05T11:25:07.238Z,9.42
2018-12-05T11:26:14.327Z,9.41
2018-12-05T11:27:18.331Z,9.41
2018-12-05T11:28:22.524Z,9.40
2018-12-05T11:29:26.741Z,9.42
2018-12-05T11:30:30.712Z,9.45
2018-12-05T11:31:35.026Z,9.43
2018-12-05T11:32:39.082Z,9.48
2018-12-05T11:33:43.243Z,9.49
2018-12-05T11:34:47.299Z,9.51
2018-12-05T11:35:51.310Z,9.52
2018-12-05T11:36:55.352Z,9.54
2018-12-05T11:37:59.480Z,9.57
2018-12-05T11:39:05.754Z,9.59
2018-12-05T11:40:10.014Z,9.59
2018-12-05T11:41:14.302Z,9.61
2018-12-05T11:42:18.486Z,9.61
2018-12-05T11:43:22.583Z,9.64
2018-12-05T11:44:26.622Z,9.65
2018-12-05T11:45:30.759Z,9.66
2018-12-05T11:46:34.769Z,9.67
2018-12-05T11:47:38.877Z,9.68
2018-12-05T11:48:43.043Z,9.70
2018-12-05T11:49:47.430Z,9.71
2018-12-05T11:50:51.495Z,9.73
2018-12-05T11:51:55.539Z,9.72
2018-12-05T11:52:59.690Z,9.73
2018-12-05T11:54:03.720Z,9.75
2018-12-05T11:55:08.001Z,9.75
2018-12-05T11:56:12.027Z,9.76
2018-12-05T11:57:16.112Z,9.76
2018-12-05T11:58:20.226Z,9.76
2018-12-05T11:59:24.585Z,9.76
2018-12-05T12:00:28.764Z,9.77
2018-12-05T12:01:32.967Z,9.78
2018-12-05T12:02:37.072Z,9.77
2018-12-05T12:03:41.238Z,9.79
2018-12-05T12:04:45.303Z,9.78
2018-12-05T12:05:49.555Z,9.80
2018-12-05T12:06:53.700Z,9.81
2018-12-05T12:07:57.640Z,9.81
2018-12-05T12:09:01.778Z,9.79
2018-12-05T12:10:06.100Z,9.80
2018-12-05T12:11:10.244Z,9.81
2018-12-05T12:12:20.130Z,9.84
2018-12-05T12:13:24.231Z,9.86
2018-12-05T12:14:28.450Z,9.88
2018-12-05T12:15:32.720Z,9.89
2018-12-05T12:16:36.843Z,9.90
2018-12-05T12:17:41.903Z,9.91
2018-12-05T12:18:46.718Z,9.93
2018-12-05T12:19:50.859Z,9.95
2018-12-05T12:20:55.018Z,9.96
2018-12-05T12:21:59.177Z,9.97
2018-12-05T12:23:03.331Z,9.95
2018-12-05T12:24:07.716Z,9.95
2018-12-05T12:25:11.923Z,9.97
2018-12-05T12:26:16.045Z,9.98
2018-12-05T12:27:20.214Z,10.00
2018-12-05T12:28:24.363Z,10.01
2018-12-05T12:29:28.667Z,10.04
2018-12-05T12:30:32.710Z,10.05
2018-12-05T12:31:36.783Z,10.06
2018-12-05T12:32:40.957Z,10.07
2018-12-05T12:33:45.071Z,10.08
2018-12-05T12:34:49.275Z,10.09
2018-12-05T12:35:53.357Z,10.09
2018-12-05T12:36:57.343Z,10.11
2018-12-05T12:38:01.539Z,10.12
2018-12-05T12:39:07.503Z,10.11
2018-12-05T12:40:11.573Z,10.10
2018-12-05T12:41:15.774Z,10.11
2018-12-05T12:42:19.922Z,10.11
2018-12-05T12:43:23.983Z,10.11
2018-12-05T12:44:28.083Z,10.12
2018-12-05T12:45:32.223Z,10.12
2018-12-05T12:46:36.256Z,10.12
2018-12-05T12:47:40.278Z,10.13
2018-12-05T12:48:44.346Z,10.15
2018-12-05T12:49:48.534Z,10.15
2018-12-05T12:50:52.588Z,10.16
2018-12-05T12:51:56.664Z,10.18
2018-12-05T12:53:00.742Z,10.19
2018-12-05T12:54:05.462Z,10.18
2018-12-05T12:55:09.852Z,10.19
2018-12-05T12:56:13.943Z,10.18
2018-12-05T12:57:18.088Z,10.18
2018-12-05T12:58:22.160Z,10.19
2018-12-05T12:59:26.263Z,10.19
2018-12-05T13:00:30.503Z,10.19
2018-12-05T13:01:34.816Z,10.19
2018-12-05T13:02:39.021Z,10.19
2018-12-05T13:03:43.540Z,10.19
2018-12-05T13:04:47.562Z,10.20
2018-12-05T13:05:51.664Z,10.20
2018-12-05T13:06:55.862Z,10.22
2018-12-05T13:07:59.923Z,10.22
2018-12-05T13:09:06.122Z,10.23
2018-12-05T13:10:10.416Z,10.25
2018-12-05T13:11:14.484Z,10.26
2018-12-05T13:12:23.863Z,10.27
2018-12-05T13:13:27.983Z,10.29
2018-12-05T13:14:32.137Z,10.32
2018-12-05T13:15:36.434Z,10.31
2018-12-05T13:16:40.595Z,10.31
2018-12-05T13:17:44.658Z,10.30
2018-12-05T13:18:49.682Z,10.29
2018-12-05T13:19:54.843Z,10.29
2018-12-05T13:20:58.979Z,10.29
2018-12-05T13:22:03.121Z,10.27
2018-12-05T13:23:07.156Z,10.27
2018-12-05T13:24:11.151Z,10.26
2018-12-05T13:25:15.215Z,10.24
2018-12-05T13:26:19.419Z,10.23
2018-12-05T13:27:23.532Z,10.22
2018-12-05T13:28:27.604Z,10.21
2018-12-05T13:29:31.594Z,10.21
2018-12-05T13:30:36.001Z,10.20
2018-12-05T13:31:40.159Z,10.21
2018-12-05T13:32:44.278Z,10.20
2018-12-05T13:33:48.355Z,10.19
2018-12-05T13:34:52.374Z,10.18
2018-12-05T13:35:56.421Z,10.18
2018-12-05T13:37:00.470Z,10.17
2018-12-05T13:38:04.644Z,10.17
2018-12-05T13:39:09.278Z,10.18
2018-12-05T13:40:13.409Z,10.18
2018-12-05T13:41:17.410Z,10.20
2018-12-05T13:42:21.475Z,10.21
2018-12-05T13:43:25.730Z,10.23
2018-12-05T13:44:29.848Z,10.23
2018-12-05T13:45:34.146Z,10.23
2018-12-05T13:46:38.215Z,10.24
2018-12-05T13:47:42.482Z,10.24
2018-12-05T13:48:46.490Z,10.23
2018-12-05T13:49:50.531Z,10.21
2018-12-05T13:50:54.729Z,10.18
2018-12-05T13:51:58.816Z,10.17
2018-12-05T13:53:02.787Z,10.16
2018-12-05T13:54:07.125Z,10.15
2018-12-05T13:55:11.309Z,10.13
2018-12-05T13:56:15.491Z,10.12
2018-12-05T13:57:19.800Z,10.11
2018-12-05T13:58:23.926Z,10.09
2018-12-05T13:59:28.097Z,10.09
2018-12-05T14:00:32.170Z,10.10
2018-12-05T14:01:36.278Z,10.11
2018-12-05T14:02:40.283Z,10.12
2018-12-05T14:03:44.291Z,10.12
2018-12-05T14:04:48.466Z,10.14
2018-12-05T14:05:52.565Z,10.15
2018-12-05T14:06:56.690Z,10.17
2018-12-05T14:08:00.711Z,10.18
2018-12-05T14:09:06.596Z,10.19
2018-12-05T14:10:10.788Z,10.18
2018-12-05T14:11:16.396Z,10.18
2018-12-05T14:12:26.011Z,10.19
2018-12-05T14:13:30.113Z,10.19
2018-12-05T14:14:35.457Z,10.19
2018-12-05T14:15:39.784Z,10.20
2018-12-05T14:16:43.948Z,10.19
2018-12-05T14:17:48.005Z,10.19
2018-12-05T14:18:52.410Z,10.21